createdAt,value
2023-01-29T00:01:51.902Z,15.77
2023-01-29T00:04:18.761Z,14.87
2023-01-29T00:06:45.182Z,15.73
2023-01-29T00:09:12.786Z,15.03
2023-01-29T00:11:40.039Z,16.37
2023-01-29T00:14:07.007Z,15.57
2023-01-29T00:16:33.427Z,15.60
2023-01-29T00:19:02.187Z,16.33
2023-01-29T00:21:31.002Z,15.30
2023-01-29T00:23:58.532Z,16.10
2023-01-29T00:26:25.751Z,16.27
2023-01-29T00:28:52.201Z,16.23
2023-01-29T00:31:24.474Z,16.27
2023-01-29T00:33:51.595Z,15.77
2023-01-29T00:36:20.329Z,15.87
2023-01-29T00:38:54.590Z,16.23
2023-01-29T00:41:41.748Z,16.43
2023-01-29T00:44:26.911Z,16.00
2023-01-29T00:46:53.650Z,15.10
2023-01-29T00:49:20.520Z,16.83
2023-01-29T00:52:09.836Z,15.93
2023-01-29T00:54:36.381Z,16.63
2023-01-29T00:57:04.012Z,16.57
2023-01-29T00:59:31.630Z,16.10
2023-01-29T01:02:16.684Z,16.77
2023-01-29T01:04:43.246Z,15.93
2023-01-29T01:07:09.687Z,16.07
2023-01-29T01:09:55.708Z,16.23
2023-01-29T01:12:22.571Z,17.40
2023-01-29T01:14:49.183Z,16.10
2023-01-29T01:17:15.801Z,16.17
2023-01-29T01:19:43.283Z,16.83
2023-01-29T01:22:10.356Z,16.73
2023-01-29T01:24:37.346Z,17.00
2023-01-29T01:27:05.211Z,17.00
2023-01-29T01:29:31.675Z,16.77
2023-01-29T01:31:59.234Z,16.83
2023-01-29T01:34:27.117Z,16.37
2023-01-29T01:36:56.260Z,17.03
2023-01-29T01:39:24.768Z,16.47
2023-01-29T01:41:53.613Z,16.77
2023-01-29T01:44:55.925Z,16.37
2023-01-29T01:47:28.472Z,15.87
2023-01-29T01:49:57.683Z,16.60
2023-01-29T01:52:24.659Z,15.83
2023-01-29T01:54:52.038Z,16.63
2023-01-29T01:57:25.127Z,16.30
2023-01-29T02:00:13.030Z,16.43
2023-01-29T02:03:04.701Z,16.50
2023-01-29T02:05:54.866Z,16.50
2023-01-29T02:09:00.839Z,16.57
2023-01-29T02:11:27.421Z,17.50
2023-01-29T02:13:54.095Z,16.53
2023-01-29T02:16:25.579Z,16.93
2023-01-29T02:18:53.089Z,17.30
2023-01-29T02:21:52.143Z,15.57
2023-01-29T02:24:50.515Z,16.80
2023-01-29T02:27:25.056Z,17.53
2023-01-29T02:30:02.503Z,17.03
2023-01-29T02:33:02.360Z,16.57
2023-01-29T02:35:39.067Z,16.50
2023-01-29T02:38:30.057Z,16.90
2023-01-29T02:41:03.630Z,17.73
2023-01-29T02:43:58.918Z,17.17
2023-01-29T02:46:34.994Z,17.17
2023-01-29T02:49:15.925Z,17.07
2023-01-29T02:51:50.224Z,16.93
2023-01-29T02:54:22.043Z,17.23
2023-01-29T02:56:59.569Z,16.90
2023-01-29T02:59:35.479Z,16.57
2023-01-29T03:02:10.866Z,17.37
2023-01-29T03:04:46.781Z,17.67
2023-01-29T03:07:44.052Z,17.00
2023-01-29T03:10:21.772Z,16.60
2023-01-29T03:12:55.837Z,17.73
2023-01-29T03:15:29.503Z,16.83
2023-01-29T03:18:18.822Z,17.13
2023-01-29T03:20:53.507Z,18.03
2023-01-29T03:23:37.895Z,15.97
2023-01-29T03:26:24.823Z,16.70
2023-01-29T03:29:11.304Z,17.03
2023-01-29T03:31:56.922Z,16.23
2023-01-29T03:34:34.716Z,17.43
2023-01-29T03:37:09.556Z,17.23
2023-01-29T03:39:36.960Z,17.30
2023-01-29T03:42:30.029Z,16.47
2023-01-29T03:45:09.793Z,17.13
2023-01-29T03:47:49.676Z,16.70
2023-01-29T03:51:01.158Z,16.33
2023-01-29T03:53:47.472Z,16.07
2023-01-29T03:56:28.946Z,16.67
2023-01-29T03:59:32.949Z,16.23
2023-01-29T04:02:31.640Z,16.37
2023-01-29T04:05:09.681Z,16.17
2023-01-29T04:07:51.614Z,16.40
2023-01-29T04:10:24.792Z,16.17
2023-01-29T04:12:56.969Z,16.13
2023-01-29T04:15:27.509Z,16.07
2023-01-29T04:17:55.956Z,17.17
2023-01-29T04:20:32.422Z,16.20
2023-01-29T04:22:59.648Z,16.13
2023-01-29T04:25:47.596Z,15.77
2023-01-29T04:28:26.508Z,16.67
2023-01-29T04:31:04.593Z,16.80
2023-01-29T04:33:43.281Z,15.87
2023-01-29T04:36:25.291Z,15.90
2023-01-29T04:39:11.951Z,15.17
2023-01-29T04:41:55.348Z,15.93
2023-01-29T04:44:39.484Z,15.93
2023-01-29T04:47:34.683Z,16.30
2023-01-29T04:50:22.170Z,16.77
2023-01-29T04:52:59.670Z,16.30
2023-01-29T04:55:36.671Z,16.00
2023-01-29T04:58:12.878Z,16.27
2023-01-29T05:00:42.946Z,16.83
2023-01-29T05:03:13.568Z,17.03
2023-01-29T05:05:42.387Z,16.70
2023-01-29T05:08:13.312Z,16.63
2023-01-29T05:10:40.175Z,16.67
2023-01-29T05:13:10.992Z,16.63
2023-01-29T05:15:39.860Z,17.07
2023-01-29T05:18:08.748Z,16.67
2023-01-29T05:20:39.128Z,16.43
2023-01-29T05:23:10.767Z,17.57
2023-01-29T05:25:37.558Z,17.03
2023-01-29T05:28:04.135Z,16.87
2023-01-29T05:30:32.965Z,17.40
2023-01-29T05:32:59.963Z,18.17
2023-01-29T05:35:28.521Z,18.07
2023-01-29T05:37:58.507Z,18.27
2023-01-29T05:40:25.251Z,18.70
2023-01-29T05:42:52.011Z,17.10
2023-01-29T05:45:19.027Z,17.77
2023-01-29T05:47:45.935Z,20.63
2023-01-29T05:50:14.085Z,19.23
2023-01-29T05:52:40.915Z,19.83
2023-01-29T05:55:09.605Z,21.50
2023-01-29T05:57:36.292Z,20.40
2023-01-29T06:00:04.367Z,20.90
2023-01-29T06:02:38.973Z,21.20
2023-01-29T06:05:05.575Z,21.77
2023-01-29T06:07:32.003Z,21.87
2023-01-29T06:09:58.608Z,22.70
2023-01-29T06:12:27.126Z,22.43
2023-01-29T06:14:53.799Z,21.93
2023-01-29T06:17:20.217Z,22.07
2023-01-29T06:19:46.640Z,22.80
2023-01-29T06:22:13.159Z,22.23
2023-01-29T06:24:39.556Z,23.50
2023-01-29T06:27:06.026Z,23.63
2023-01-29T06:29:32.416Z,22.50
2023-01-29T06:31:58.937Z,23.60
2023-01-29T06:34:25.513Z,23.23
2023-01-29T06:36:52.039Z,22.23
2023-01-29T06:39:18.519Z,23.57
2023-01-29T06:41:46.229Z,24.33
2023-01-29T06:44:13.735Z,23.10
2023-01-29T06:46:40.147Z,24.67
2023-01-29T06:49:06.566Z,22.90
2023-01-29T06:51:33.027Z,25.67
2023-01-29T06:53:59.698Z,23.27
2023-01-29T06:56:26.249Z,24.00
2023-01-29T06:58:52.700Z,25.63
2023-01-29T07:01:34.618Z,23.80
2023-01-29T07:04:02.900Z,23.80
2023-01-29T07:06:30.595Z,23.57
2023-01-29T07:08:57.123Z,24.13
2023-01-29T07:11:23.785Z,25.20
2023-01-29T07:13:50.171Z,25.07
2023-01-29T07:16:16.688Z,25.20
2023-01-29T07:18:43.117Z,25.13
2023-01-29T07:21:09.875Z,24.23
2023-01-29T07:23:36.442Z,25.33
2023-01-29T07:26:05.307Z,26.43
2023-01-29T07:28:32.080Z,25.83
2023-01-29T07:30:59.323Z,26.57
2023-01-29T07:33:26.657Z,25.63
2023-01-29T07:35:53.534Z,25.93
2023-01-29T07:38:20.207Z,26.40
2023-01-29T07:40:46.749Z,28.23
2023-01-29T07:43:13.273Z,27.30
2023-01-29T07:45:40.317Z,27.53
2023-01-29T07:48:09.800Z,27.47
2023-01-29T07:50:36.527Z,27.03
2023-01-29T07:53:03.676Z,25.83
2023-01-29T07:55:30.415Z,28.80
2023-01-29T07:57:57.453Z,26.20
2023-01-29T08:00:24.468Z,26.33
2023-01-29T08:02:51.257Z,26.57
2023-01-29T08:05:18.040Z,27.70
2023-01-29T08:07:49.225Z,27.23
2023-01-29T08:10:22.001Z,27.27
2023-01-29T08:13:00.125Z,26.40
2023-01-29T08:15:28.296Z,26.40
2023-01-29T08:17:57.942Z,26.60
2023-01-29T08:20:24.692Z,26.93
2023-01-29T08:22:59.115Z,26.60
2023-01-29T08:25:25.831Z,27.17
2023-01-29T08:27:52.439Z,24.67
2023-01-29T08:30:18.878Z,26.10
2023-01-29T08:32:45.306Z,26.00
2023-01-29T08:35:11.928Z,26.67
2023-01-29T08:37:38.324Z,26.33
2023-01-29T08:40:05.343Z,25.63
2023-01-29T08:42:31.810Z,25.67
2023-01-29T08:44:58.306Z,25.93
2023-01-29T08:47:24.764Z,27.00
2023-01-29T08:49:51.316Z,25.47
2023-01-29T08:52:17.742Z,26.17
2023-01-29T08:54:44.310Z,26.87
2023-01-29T08:57:10.824Z,25.00
2023-01-29T08:59:38.096Z,24.80
2023-01-29T09:02:04.543Z,25.60
2023-01-29T09:04:30.958Z,25.53
2023-01-29T09:06:57.456Z,23.37
2023-01-29T09:09:24.418Z,24.40
2023-01-29T09:11:50.980Z,24.00
2023-01-29T09:14:17.413Z,23.73
2023-01-29T09:16:43.814Z,24.87
2023-01-29T09:19:10.561Z,23.30
2023-01-29T09:21:36.982Z,23.73
2023-01-29T09:24:03.485Z,23.63
2023-01-29T09:26:29.943Z,23.77
2023-01-29T09:28:56.428Z,23.40
2023-01-29T09:31:23.043Z,24.10
2023-01-29T09:33:49.635Z,22.30
2023-01-29T09:36:16.139Z,24.17
2023-01-29T09:38:42.545Z,23.43
2023-01-29T09:41:29.311Z,22.83
2023-01-29T09:44:13.169Z,23.33
2023-01-29T09:46:46.422Z,23.90
2023-01-29T09:49:24.660Z,23.37
2023-01-29T09:52:11.220Z,22.57
2023-01-29T09:54:56.100Z,20.57
2023-01-29T09:57:27.590Z,22.07
2023-01-29T09:59:54.737Z,21.77
2023-01-29T10:02:42.797Z,23.10
2023-01-29T10:05:30.175Z,21.30
2023-01-29T10:08:23.627Z,22.50
2023-01-29T10:11:10.104Z,21.43
2023-01-29T10:13:58.646Z,20.93
2023-01-29T10:17:05.408Z,20.93
2023-01-29T10:19:59.482Z,21.90
2023-01-29T10:22:54.618Z,22.07
2023-01-29T10:25:22.916Z,21.93
2023-01-29T10:27:53.296Z,22.43
2023-01-29T10:30:27.343Z,22.47
2023-01-29T10:32:56.281Z,22.40
2023-01-29T10:35:33.023Z,21.73
2023-01-29T10:38:15.738Z,23.57
2023-01-29T10:40:58.835Z,22.87
2023-01-29T10:43:38.038Z,22.93
2023-01-29T10:46:23.501Z,23.17
2023-01-29T10:49:13.011Z,22.87
2023-01-29T10:51:55.820Z,23.63
2023-01-29T10:54:30.723Z,23.17
2023-01-29T10:57:10.156Z,23.60
2023-01-29T10:59:55.941Z,25.10
2023-01-29T11:02:24.393Z,23.90
2023-01-29T11:04:50.847Z,23.53
2023-01-29T11:07:19.869Z,25.37
2023-01-29T11:09:57.639Z,24.07
2023-01-29T11:12:30.565Z,24.33
2023-01-29T11:15:06.780Z,24.40
2023-01-29T11:17:33.213Z,22.87
2023-01-29T11:19:59.733Z,25.17
2023-01-29T11:22:28.664Z,23.83
2023-01-29T11:25:19.681Z,24.93
2023-01-29T11:27:50.279Z,23.33
2023-01-29T11:30:35.444Z,24.77
2023-01-29T11:33:24.642Z,24.47
2023-01-29T11:35:52.742Z,23.17
2023-01-29T11:38:29.459Z,25.33
2023-01-29T11:41:08.073Z,24.07
2023-01-29T11:43:34.464Z,23.53
2023-01-29T11:46:07.128Z,25.03
2023-01-29T11:48:59.222Z,24.00
2023-01-29T11:51:29.759Z,24.70
2023-01-29T11:53:59.767Z,24.93
2023-01-29T11:56:35.580Z,25.47
2023-01-29T11:59:04.524Z,23.17
2023-01-29T12:01:40.461Z,23.13
2023-01-29T12:04:20.456Z,24.10
2023-01-29T12:06:52.027Z,24.47
2023-01-29T12:09:22.569Z,24.80
2023-01-29T12:11:49.182Z,25.77
2023-01-29T12:14:29.900Z,25.57
2023-01-29T12:17:19.607Z,24.70
2023-01-29T12:19:58.974Z,23.93
2023-01-29T12:22:53.459Z,24.30
2023-01-29T12:25:24.917Z,24.57
2023-01-29T12:28:00.444Z,24.63
2023-01-29T12:30:40.230Z,24.80
2023-01-29T12:33:14.930Z,25.30
2023-01-29T12:35:50.805Z,26.37
2023-01-29T12:38:22.927Z,26.23
2023-01-29T12:41:04.428Z,23.37
2023-01-29T12:43:35.023Z,22.50
2023-01-29T12:46:06.766Z,23.90
2023-01-29T12:48:37.155Z,23.63
2023-01-29T12:51:12.079Z,23.90
2023-01-29T12:53:44.645Z,24.77
2023-01-29T12:56:18.900Z,23.97
2023-01-29T12:58:50.587Z,24.43
2023-01-29T13:01:33.129Z,22.50
2023-01-29T13:04:14.738Z,25.70
2023-01-29T13:06:47.885Z,23.80
2023-01-29T13:09:20.702Z,24.60
2023-01-29T13:11:55.890Z,23.07
2023-01-29T13:14:26.089Z,23.30
2023-01-29T13:17:07.406Z,23.50
2023-01-29T13:19:40.985Z,23.37
2023-01-29T13:22:22.391Z,23.17
2023-01-29T13:25:02.332Z,23.47
2023-01-29T13:27:37.604Z,23.57
2023-01-29T13:30:05.061Z,24.80
2023-01-29T13:32:34.841Z,23.20
2023-01-29T13:35:06.633Z,23.20
2023-01-29T13:37:38.747Z,22.90
2023-01-29T13:40:07.181Z,22.53
2023-01-29T13:42:42.573Z,22.80
2023-01-29T13:45:20.002Z,25.23
2023-01-29T13:47:46.469Z,24.33
2023-01-29T13:50:29.854Z,21.47
2023-01-29T13:53:02.088Z,23.07
2023-01-29T13:55:38.351Z,23.67
2023-01-29T13:58:06.649Z,22.73
2023-01-29T14:00:32.994Z,23.63
2023-01-29T14:03:08.579Z,25.50
2023-01-29T14:05:42.937Z,23.00
2023-01-29T14:08:09.262Z,26.43
2023-01-29T14:10:38.636Z,24.00
2023-01-29T14:13:04.982Z,25.47
2023-01-29T14:15:36.011Z,25.10
2023-01-29T14:18:08.217Z,26.63
2023-01-29T14:20:47.115Z,25.10
2023-01-29T14:23:23.394Z,26.47
2023-01-29T14:25:50.028Z,24.63
2023-01-29T14:28:22.514Z,25.77
2023-01-29T14:30:49.525Z,26.43
2023-01-29T14:33:41.854Z,26.03
2023-01-29T14:36:13.552Z,27.73
2023-01-29T14:38:46.225Z,28.53
2023-01-29T14:41:29.547Z,26.37
2023-01-29T14:44:35.070Z,28.07
2023-01-29T14:47:05.180Z,28.70
2023-01-29T14:49:51.432Z,27.47
2023-01-29T14:52:22.957Z,27.17
2023-01-29T14:54:52.605Z,26.60
2023-01-29T14:57:19.435Z,25.97
2023-01-29T15:00:00.325Z,26.97
2023-01-29T15:02:41.039Z,26.60
2023-01-29T15:05:13.836Z,27.67
2023-01-29T15:07:57.573Z,26.97
2023-01-29T15:10:37.110Z,25.77
2023-01-29T15:13:14.080Z,25.90
2023-01-29T15:15:47.408Z,24.33
2023-01-29T15:18:39.700Z,23.50
2023-01-29T15:21:24.070Z,24.80
2023-01-29T15:24:04.369Z,24.17
2023-01-29T15:26:35.797Z,24.63
2023-01-29T15:29:04.622Z,25.37
2023-01-29T15:31:32.081Z,24.40
2023-01-29T15:34:07.473Z,23.90
2023-01-29T15:36:34.335Z,24.23
2023-01-29T15:39:15.220Z,24.80
2023-01-29T15:41:42.586Z,24.60
2023-01-29T15:44:16.643Z,24.23
2023-01-29T15:46:48.570Z,23.70
2023-01-29T15:49:25.703Z,24.63
2023-01-29T15:51:56.937Z,23.77
2023-01-29T15:54:24.418Z,23.67
2023-01-29T15:56:52.748Z,25.10
2023-01-29T15:59:31.040Z,24.93
2023-01-29T16:01:57.763Z,23.97
2023-01-29T16:04:32.926Z,24.10
2023-01-29T16:07:00.804Z,25.10
2023-01-29T16:09:29.279Z,24.70
2023-01-29T16:11:58.831Z,23.33
2023-01-29T16:14:26.786Z,24.87
2023-01-29T16:16:53.851Z,24.33
2023-01-29T16:19:25.708Z,25.03
2023-01-29T16:22:00.328Z,23.10
2023-01-29T16:24:28.255Z,25.47
2023-01-29T16:27:00.953Z,24.27
2023-01-29T16:29:33.106Z,24.93
2023-01-29T16:32:02.533Z,25.73
2023-01-29T16:34:36.107Z,24.03
2023-01-29T16:37:06.334Z,24.73
2023-01-29T16:39:38.222Z,24.83
2023-01-29T16:42:17.187Z,23.80
2023-01-29T16:45:00.891Z,26.13
2023-01-29T16:47:39.652Z,24.57
2023-01-29T16:50:40.719Z,23.93
2023-01-29T16:53:18.347Z,24.73
2023-01-29T16:55:49.363Z,25.00
2023-01-29T16:58:21.234Z,24.53
2023-01-29T17:00:52.897Z,24.97
2023-01-29T17:03:20.800Z,25.37
2023-01-29T17:05:47.765Z,24.97
2023-01-29T17:08:23.491Z,25.13
2023-01-29T17:10:50.085Z,24.27
2023-01-29T17:13:36.382Z,26.90
2023-01-29T17:16:16.199Z,25.67
2023-01-29T17:18:42.608Z,26.03
2023-01-29T17:21:09.021Z,26.20
2023-01-29T17:23:35.433Z,25.57
2023-01-29T17:26:06.888Z,24.70
2023-01-29T17:28:33.793Z,25.10
2023-01-29T17:31:06.698Z,24.87
2023-01-29T17:33:35.762Z,22.53
2023-01-29T17:36:02.236Z,25.47
2023-01-29T17:38:29.633Z,24.10
2023-01-29T17:41:07.382Z,23.17
2023-01-29T17:43:34.501Z,23.33
2023-01-29T17:46:00.984Z,23.17
2023-01-29T17:48:29.830Z,23.33
2023-01-29T17:51:02.890Z,22.90
2023-01-29T17:53:44.313Z,23.73
2023-01-29T17:56:15.903Z,24.33
2023-01-29T17:58:42.644Z,24.40
2023-01-29T18:01:09.062Z,23.73
2023-01-29T18:03:35.531Z,25.17
2023-01-29T18:06:02.631Z,23.40
2023-01-29T18:08:34.372Z,24.77
2023-01-29T18:11:01.394Z,26.20
2023-01-29T18:13:28.398Z,26.43
2023-01-29T18:15:55.190Z,23.77
2023-01-29T18:18:23.509Z,26.50
2023-01-29T18:20:50.878Z,26.13
2023-01-29T18:23:17.350Z,25.90
2023-01-29T18:25:44.746Z,27.60
2023-01-29T18:28:16.966Z,27.87
2023-01-29T18:30:47.238Z,28.47
2023-01-29T18:33:15.348Z,29.07
2023-01-29T18:35:44.171Z,27.97
2023-01-29T18:38:10.915Z,26.63
2023-01-29T18:40:37.416Z,27.43
2023-01-29T18:43:04.377Z,27.23
2023-01-29T18:45:31.326Z,25.30
2023-01-29T18:47:58.399Z,25.03
2023-01-29T18:50:26.373Z,25.47
2023-01-29T18:52:54.075Z,25.77
2023-01-29T18:55:22.203Z,26.87
2023-01-29T18:58:26.075Z,26.23
2023-01-29T19:00:39.679Z,25.50
2023-01-29T19:03:06.174Z,24.67
2023-01-29T19:05:33.947Z,24.30
2023-01-29T19:08:02.012Z,23.77
2023-01-29T19:10:28.585Z,23.83
2023-01-29T19:12:55.038Z,24.13
2023-01-29T19:15:22.628Z,23.73
2023-01-29T19:17:50.508Z,21.60
2023-01-29T19:20:17.210Z,21.97
2023-01-29T19:22:43.646Z,19.50
2023-01-29T19:25:10.192Z,21.47
2023-01-29T19:27:37.008Z,20.70
2023-01-29T19:30:08.333Z,20.87
2023-01-29T19:32:35.260Z,20.93
2023-01-29T19:35:02.019Z,20.33
2023-01-29T19:37:30.415Z,20.93
2023-01-29T19:39:56.950Z,20.93
2023-01-29T19:42:23.514Z,20.60
2023-01-29T19:44:51.089Z,20.47
2023-01-29T19:47:17.536Z,20.60
2023-01-29T19:49:44.702Z,20.77
2023-01-29T19:52:38.546Z,22.37
2023-01-29T19:55:16.041Z,20.17
2023-01-29T19:57:42.631Z,18.77
2023-01-29T20:00:11.975Z,21.30
2023-01-29T20:02:38.566Z,19.77
2023-01-29T20:05:05.534Z,19.03
2023-01-29T20:07:32.211Z,20.40
2023-01-29T20:09:58.725Z,19.97
2023-01-29T20:12:27.444Z,18.20
2023-01-29T20:14:53.844Z,19.10
2023-01-29T20:17:20.998Z,20.60
2023-01-29T20:19:47.428Z,18.63
2023-01-29T20:22:14.020Z,21.17
2023-01-29T20:24:42.476Z,19.40
2023-01-29T20:27:10.647Z,20.43
2023-01-29T20:29:38.465Z,19.47
2023-01-29T20:32:07.795Z,19.80
2023-01-29T20:34:34.930Z,21.13
2023-01-29T20:37:01.401Z,19.23
2023-01-29T20:39:28.487Z,19.50
2023-01-29T20:41:57.144Z,21.00
2023-01-29T20:44:25.448Z,19.97
2023-01-29T20:46:52.137Z,20.63
2023-01-29T20:49:19.131Z,20.13
2023-01-29T20:51:46.062Z,20.83
2023-01-29T20:54:12.704Z,20.00
2023-01-29T20:56:43.639Z,21.53
2023-01-29T20:59:12.680Z,21.23
2023-01-29T21:01:39.099Z,21.63
2023-01-29T21:04:05.777Z,23.63
2023-01-29T21:06:32.500Z,22.63
2023-01-29T21:08:58.959Z,22.50
2023-01-29T21:11:26.027Z,20.97
2023-01-29T21:13:57.485Z,21.60
2023-01-29T21:16:26.879Z,23.80
2023-01-29T21:18:57.935Z,21.23
2023-01-29T21:21:26.422Z,21.53
2023-01-29T21:23:53.241Z,22.87
2023-01-29T21:26:23.495Z,23.03
2023-01-29T21:28:50.111Z,22.63
2023-01-29T21:31:17.532Z,21.77
2023-01-29T21:33:44.288Z,23.90
2023-01-29T21:36:11.783Z,22.27
2023-01-29T21:38:38.847Z,23.67
2023-01-29T21:41:08.076Z,22.93
2023-01-29T21:43:34.683Z,23.30
2023-01-29T21:46:04.948Z,22.83
2023-01-29T21:48:31.854Z,23.57
2023-01-29T21:50:58.352Z,24.53
2023-01-29T21:53:24.918Z,24.83
2023-01-29T21:55:51.726Z,24.13
2023-01-29T21:58:20.515Z,24.07
2023-01-29T22:00:48.693Z,24.93
2023-01-29T22:03:15.604Z,24.63
2023-01-29T22:05:42.105Z,25.00
2023-01-29T22:08:09.554Z,25.30
2023-01-29T22:10:36.567Z,24.70
2023-01-29T22:13:03.388Z,24.63
2023-01-29T22:15:30.706Z,26.17
2023-01-29T22:17:57.219Z,26.00
2023-01-29T22:20:29.948Z,26.00
2023-01-29T22:22:58.683Z,25.50
2023-01-29T22:25:25.118Z,25.90
2023-01-29T22:27:51.631Z,26.73
2023-01-29T22:30:18.515Z,26.30
2023-01-29T22:32:45.124Z,26.43
2023-01-29T22:35:11.581Z,26.33
2023-01-29T22:37:37.989Z,26.70
2023-01-29T22:40:04.897Z,27.70
2023-01-29T22:42:31.424Z,25.80
2023-01-29T22:44:58.055Z,26.50
2023-01-29T22:47:24.596Z,26.40
2023-01-29T22:49:52.340Z,26.50
2023-01-29T22:52:22.413Z,26.60
2023-01-29T22:54:48.910Z,26.93
2023-01-29T22:57:15.732Z,26.03
2023-01-29T22:59:42.239Z,25.17
2023-01-29T23:02:09.313Z,25.17
2023-01-29T23:04:35.739Z,27.23
2023-01-29T23:07:02.872Z,25.80
2023-01-29T23:09:29.568Z,25.03
2023-01-29T23:11:56.142Z,26.23
2023-01-29T23:14:22.606Z,26.13
2023-01-29T23:16:49.016Z,25.90
2023-01-29T23:19:15.413Z,24.77
2023-01-29T23:21:41.868Z,25.23
2023-01-29T23:24:08.765Z,23.83
2023-01-29T23:26:53.876Z,27.03
2023-01-29T23:29:20.514Z,25.53
2023-01-29T23:31:47.002Z,24.43
2023-01-29T23:34:13.993Z,24.97
2023-01-29T23:36:40.932Z,24.63
2023-01-29T23:39:07.465Z,24.37
2023-01-29T23:41:33.969Z,25.17
2023-01-29T23:44:00.532Z,25.67
2023-01-29T23:46:27.160Z,24.83
2023-01-29T23:48:53.621Z,24.63
2023-01-29T23:51:20.075Z,25.00
2023-01-29T23:53:46.466Z,25.23
2023-01-29T23:56:12.925Z,24.50
2023-01-29T23:58:39.648Z,24.33
